createdAt,value
2018-11-03T00:02:36.584Z,8.67
2018-11-03T00:05:10.741Z,8.64
2018-11-03T00:07:43.815Z,8.68
2018-11-03T00:10:16.290Z,8.67
2018-11-03T00:12:48.620Z,8.69
2018-11-03T00:15:21.113Z,8.68
2018-11-03T00:17:53.535Z,8.67
2018-11-03T00:20:25.973Z,8.67
2018-11-03T00:22:58.317Z,8.68
2018-11-03T00:25:37.590Z,8.71
2018-11-03T00:28:10.004Z,8.70
2018-11-03T00:30:43.397Z,8.69
2018-11-03T00:33:15.794Z,8.68
2018-11-03T00:35:48.145Z,8.73
2018-11-03T00:38:20.456Z,8.77
2018-11-03T00:40:52.972Z,8.71
2018-11-03T00:43:25.266Z,8.68
2018-11-03T00:45:57.608Z,8.68
2018-11-03T00:48:29.934Z,8.69
2018-11-03T00:51:02.323Z,8.79
2018-11-03T00:53:35.674Z,8.70
2018-11-03T00:56:13.877Z,8.64
2018-11-03T00:58:48.766Z,8.61
2018-11-03T01:01:23.321Z,8.63
2018-11-03T01:04:01.053Z,8.66
2018-11-03T01:06:33.986Z,8.64
2018-11-03T01:09:08.951Z,8.64
2018-11-03T01:11:42.363Z,8.64
2018-11-03T01:14:15.543Z,8.68
2018-11-03T01:16:48.273Z,8.70
2018-11-03T01:19:21.178Z,8.70
2018-11-03T01:21:53.902Z,8.70
2018-11-03T01:24:26.329Z,8.68
2018-11-03T01:26:59.646Z,8.69
2018-11-03T01:29:32.046Z,8.68
2018-11-03T01:32:04.507Z,8.64
2018-11-03T01:34:36.954Z,8.67
2018-11-03T01:37:09.325Z,8.64
2018-11-03T01:39:43.956Z,8.57
2018-11-03T01:42:16.286Z,8.51
2018-11-03T01:44:48.763Z,8.51
2018-11-03T01:47:21.764Z,8.54
2018-11-03T01:49:54.846Z,8.52
2018-11-03T01:52:27.150Z,8.41
2018-11-03T01:54:59.694Z,8.46
2018-11-03T01:57:31.989Z,8.47
2018-11-03T02:00:04.990Z,8.49
2018-11-03T02:02:37.689Z,8.51
2018-11-03T02:05:10.469Z,8.53
2018-11-03T02:07:42.763Z,8.60
2018-11-03T02:10:15.091Z,8.64
2018-11-03T02:12:47.590Z,8.71
2018-11-03T02:15:19.906Z,8.73
2018-11-03T02:17:52.373Z,8.67
2018-11-03T02:20:24.889Z,8.67
2018-11-03T02:22:57.202Z,8.61
2018-11-03T02:25:29.638Z,8.56
2018-11-03T02:28:02.003Z,8.59
2018-11-03T02:30:34.539Z,8.60
2018-11-03T02:33:06.946Z,8.61
2018-11-03T02:35:39.330Z,8.61
2018-11-03T02:38:11.743Z,8.59
2018-11-03T02:40:44.029Z,8.59
2018-11-03T02:43:16.415Z,8.56
2018-11-03T02:45:48.750Z,8.55
2018-11-03T02:48:21.224Z,8.56
2018-11-03T02:50:53.800Z,8.59
2018-11-03T02:53:26.173Z,8.60
2018-11-03T02:55:58.479Z,8.61
2018-11-03T02:58:30.864Z,8.63
2018-11-03T03:01:03.229Z,8.67
2018-11-03T03:03:35.527Z,8.68
2018-11-03T03:06:07.921Z,8.63
2018-11-03T03:08:40.190Z,8.56
2018-11-03T03:11:12.514Z,8.51
2018-11-03T03:13:44.937Z,8.54
2018-11-03T03:16:17.214Z,8.55
2018-11-03T03:18:49.527Z,8.57
2018-11-03T03:21:22.006Z,8.64
2018-11-03T03:23:54.406Z,8.69
2018-11-03T03:26:26.893Z,8.70
2018-11-03T03:28:59.433Z,8.64
2018-11-03T03:31:31.670Z,8.65
2018-11-03T03:34:04.499Z,8.69
2018-11-03T03:36:37.001Z,8.80
2018-11-03T03:39:10.459Z,8.88
2018-11-03T03:41:42.760Z,8.77
2018-11-03T03:44:15.049Z,8.62
2018-11-03T03:46:47.349Z,8.59
2018-11-03T03:49:19.687Z,8.58
2018-11-03T03:51:52.357Z,8.57
2018-11-03T03:54:24.683Z,8.61
2018-11-03T03:56:57.005Z,8.63
2018-11-03T03:59:29.361Z,8.66
2018-11-03T04:02:01.984Z,8.67
2018-11-03T04:04:34.306Z,8.75
2018-11-03T04:07:06.739Z,8.72
2018-11-03T04:09:39.137Z,8.69
2018-11-03T04:12:11.528Z,8.68
2018-11-03T04:14:43.801Z,8.64
2018-11-03T04:17:16.137Z,8.61
2018-11-03T04:19:48.425Z,8.60
2018-11-03T04:22:20.865Z,8.54
2018-11-03T04:24:53.158Z,8.57
2018-11-03T04:27:25.542Z,8.57
2018-11-03T04:29:57.842Z,8.60
2018-11-03T04:32:30.278Z,8.60
2018-11-03T04:35:02.618Z,8.59
2018-11-03T04:37:34.921Z,8.60
2018-11-03T04:40:08.878Z,8.65
2018-11-03T04:42:41.698Z,8.62
2018-11-03T04:45:14.144Z,8.62
2018-11-03T04:47:46.577Z,8.67
2018-11-03T04:50:18.881Z,8.63
2018-11-03T04:52:51.190Z,8.62
2018-11-03T04:55:23.639Z,8.66
2018-11-03T04:57:55.843Z,8.67
2018-11-03T05:00:28.135Z,8.66
2018-11-03T05:03:00.541Z,8.67
2018-11-03T05:05:32.811Z,8.69
2018-11-03T05:08:05.341Z,8.64
2018-11-03T05:10:37.679Z,8.63
2018-11-03T05:13:10.094Z,8.63
2018-11-03T05:15:42.561Z,8.67
2018-11-03T05:18:14.897Z,8.67
2018-11-03T05:20:47.174Z,8.72
2018-11-03T05:23:19.941Z,8.69
2018-11-03T05:25:52.362Z,8.66
2018-11-03T05:28:24.675Z,8.64
2018-11-03T05:30:57.105Z,8.63
2018-11-03T05:33:29.495Z,8.63
2018-11-03T05:36:01.859Z,8.73
2018-11-03T05:38:34.259Z,8.75
2018-11-03T05:41:06.656Z,8.74
2018-11-03T05:43:39.101Z,8.75
2018-11-03T05:46:11.533Z,8.75
2018-11-03T05:48:43.996Z,8.73
2018-11-03T05:51:16.477Z,8.79
2018-11-03T05:53:48.859Z,8.74
2018-11-03T05:56:21.358Z,8.71
2018-11-03T05:58:53.752Z,8.75
2018-11-03T06:01:26.091Z,8.74
2018-11-03T06:03:58.481Z,8.72
2018-11-03T06:06:30.762Z,8.63
2018-11-03T06:09:03.911Z,8.56
2018-11-03T06:11:36.229Z,8.51
2018-11-03T06:14:08.566Z,8.56
2018-11-03T06:16:41.159Z,8.60
2018-11-03T06:19:13.459Z,8.57
2018-11-03T06:21:45.786Z,8.53
2018-11-03T06:24:18.135Z,8.52
2018-11-03T06:26:50.463Z,8.51
2018-11-03T06:29:22.766Z,8.57
2018-11-03T06:31:55.119Z,8.59
2018-11-03T06:34:27.466Z,8.68
2018-11-03T06:36:59.804Z,8.68
2018-11-03T06:39:32.216Z,8.72
2018-11-03T06:42:05.326Z,8.76
2018-11-03T06:44:37.605Z,8.78
2018-11-03T06:47:10.046Z,8.80
2018-11-03T06:49:42.776Z,8.90
2018-11-03T06:52:15.405Z,8.84
2018-11-03T06:54:47.655Z,8.85
2018-11-03T06:57:19.937Z,8.83
2018-11-03T06:59:52.299Z,8.85
2018-11-03T07:02:24.702Z,8.98
2018-11-03T07:04:57.052Z,8.96
2018-11-03T07:07:29.327Z,8.95
2018-11-03T07:10:02.068Z,8.99
2018-11-03T07:12:34.489Z,9.01
2018-11-03T07:15:06.808Z,8.99
2018-11-03T07:17:39.130Z,9.03
2018-11-03T07:20:12.510Z,9.05
2018-11-03T07:22:44.843Z,9.09
2018-11-03T07:25:17.407Z,9.11
2018-11-03T07:27:49.737Z,9.17
2018-11-03T07:30:22.347Z,9.24
2018-11-03T07:32:54.666Z,9.27
2018-11-03T07:35:27.133Z,9.38
2018-11-03T07:37:59.545Z,9.42
2018-11-03T07:40:32.016Z,9.47
2018-11-03T07:43:04.696Z,9.53
2018-11-03T07:45:37.231Z,9.55
2018-11-03T07:48:09.774Z,9.60
2018-11-03T07:50:41.995Z,9.67
2018-11-03T07:53:14.351Z,9.75
2018-11-03T07:55:46.775Z,9.78
2018-11-03T07:58:19.208Z,9.87
2018-11-03T08:00:51.721Z,9.94
2018-11-03T08:03:24.049Z,9.94
2018-11-03T08:05:56.414Z,10.00
2018-11-03T08:08:28.868Z,10.20
2018-11-03T08:11:01.576Z,10.22
2018-11-03T08:13:33.995Z,10.28
2018-11-03T08:16:06.545Z,10.25
2018-11-03T08:18:38.862Z,10.26
2018-11-03T08:21:11.229Z,10.27
2018-11-03T08:23:43.804Z,10.22
2018-11-03T08:26:16.291Z,10.22
2018-11-03T08:28:48.690Z,10.27
2018-11-03T08:31:21.048Z,10.24
2018-11-03T08:33:53.470Z,10.21
2018-11-03T08:36:25.814Z,10.28
2018-11-03T08:38:58.343Z,10.36
2018-11-03T08:41:30.647Z,10.61
2018-11-03T08:44:03.009Z,10.54
2018-11-03T08:46:35.359Z,10.58
2018-11-03T08:49:07.931Z,10.62
2018-11-03T08:51:40.955Z,10.64
2018-11-03T08:54:13.510Z,10.70
2018-11-03T08:56:46.200Z,10.78
2018-11-03T08:59:18.538Z,10.86
2018-11-03T09:01:51.008Z,10.80
2018-11-03T09:04:23.574Z,10.82
2018-11-03T09:06:55.946Z,10.81
2018-11-03T09:09:28.334Z,10.82
2018-11-03T09:12:00.634Z,10.93
2018-11-03T09:14:33.138Z,10.94
2018-11-03T09:17:05.486Z,10.96
2018-11-03T09:19:37.814Z,11.00
2018-11-03T09:22:11.287Z,11.02
2018-11-03T09:24:43.842Z,11.06
2018-11-03T09:27:16.458Z,11.12
2018-11-03T09:29:51.986Z,11.16
2018-11-03T09:32:25.647Z,11.19
2018-11-03T09:34:59.094Z,11.19
2018-11-03T09:37:33.456Z,11.17
2018-11-03T09:40:07.802Z,11.19
2018-11-03T09:42:40.799Z,11.16
2018-11-03T09:45:13.517Z,11.18
2018-11-03T09:47:48.951Z,11.21
2018-11-03T09:50:21.535Z,11.33
2018-11-03T09:52:56.056Z,11.32
2018-11-03T09:55:29.313Z,11.40
2018-11-03T09:58:04.132Z,11.59
2018-11-03T10:00:37.566Z,11.50
2018-11-03T10:03:10.439Z,11.40
2018-11-03T10:05:44.375Z,11.42
2018-11-03T10:08:22.862Z,11.47
2018-11-03T10:10:55.505Z,11.50
2018-11-03T10:13:28.437Z,11.54
2018-11-03T10:16:01.006Z,11.56
2018-11-03T10:18:33.319Z,11.63
2018-11-03T10:21:06.074Z,11.65
2018-11-03T10:23:38.898Z,11.73
2018-11-03T10:26:11.225Z,11.76
2018-11-03T10:28:43.956Z,11.75
2018-11-03T10:31:16.262Z,11.80
2018-11-03T10:33:48.698Z,11.81
2018-11-03T10:36:20.944Z,11.83
2018-11-03T10:38:53.318Z,11.85
2018-11-03T10:41:25.655Z,12.00
2018-11-03T10:43:58.060Z,11.99
2018-11-03T10:46:31.664Z,11.93
2018-11-03T10:49:06.957Z,12.02
2018-11-03T10:51:39.429Z,12.22
2018-11-03T10:54:12.706Z,12.22
2018-11-03T10:56:45.301Z,12.23
2018-11-03T10:59:17.829Z,12.41
2018-11-03T11:01:55.882Z,12.33
2018-11-03T11:04:35.188Z,12.41
2018-11-03T11:07:13.464Z,12.48
2018-11-03T11:09:52.324Z,12.55
2018-11-03T11:12:31.503Z,12.66
2018-11-03T11:15:04.057Z,12.62
2018-11-03T11:17:36.553Z,12.71
2018-11-03T11:20:09.471Z,12.86
2018-11-03T11:22:41.887Z,13.02
2018-11-03T11:25:14.381Z,12.83
2018-11-03T11:27:46.837Z,12.86
2018-11-03T11:30:19.256Z,13.14
2018-11-03T11:32:51.926Z,13.11
2018-11-03T11:35:24.909Z,13.10
2018-11-03T11:37:57.387Z,13.26
2018-11-03T11:40:30.130Z,13.23
2018-11-03T11:43:04.599Z,13.32
2018-11-03T11:45:37.096Z,13.38
2018-11-03T11:48:09.878Z,13.39
2018-11-03T11:50:42.307Z,13.36
2018-11-03T11:53:14.929Z,13.44
2018-11-03T11:55:47.354Z,13.37
2018-11-03T11:58:20.596Z,13.46
2018-11-03T12:00:56.310Z,13.40
2018-11-03T12:03:28.780Z,13.31
2018-11-03T12:06:01.420Z,13.35
2018-11-03T12:08:34.090Z,13.36
2018-11-03T12:11:06.480Z,13.41
2018-11-03T12:13:40.080Z,13.40
2018-11-03T12:16:15.006Z,13.49
2018-11-03T12:18:51.350Z,13.54
2018-11-03T12:21:26.028Z,13.52
2018-11-03T12:24:00.175Z,13.48
2018-11-03T12:26:32.950Z,13.34
2018-11-03T12:29:05.582Z,13.45
2018-11-03T12:31:39.163Z,13.52
2018-11-03T12:34:11.626Z,13.48
2018-11-03T12:36:44.546Z,13.52
2018-11-03T12:39:16.941Z,13.63
2018-11-03T12:41:49.362Z,13.68
2018-11-03T12:44:22.006Z,13.91
2018-11-03T12:46:54.442Z,13.78
2018-11-03T12:49:26.869Z,14.01
2018-11-03T12:51:59.570Z,14.13
2018-11-03T12:54:32.111Z,14.14
2018-11-03T12:57:04.801Z,14.27
2018-11-03T12:59:37.160Z,14.21
2018-11-03T13:02:09.488Z,14.11
2018-11-03T13:04:42.202Z,14.04
2018-11-03T13:07:14.793Z,14.02
2018-11-03T13:09:47.875Z,13.97
2018-11-03T13:12:20.955Z,13.78
2018-11-03T13:14:53.895Z,13.80
2018-11-03T13:17:26.238Z,13.84
2018-11-03T13:19:58.974Z,13.81
2018-11-03T13:22:32.085Z,13.70
2018-11-03T13:25:05.196Z,13.74
2018-11-03T13:27:38.271Z,13.71
2018-11-03T13:30:12.794Z,13.69
2018-11-03T13:32:46.678Z,13.76
2018-11-03T13:35:23.513Z,13.80
2018-11-03T13:37:58.950Z,13.79
2018-11-03T13:40:31.410Z,13.81
2018-11-03T13:43:04.704Z,13.96
2018-11-03T13:45:38.509Z,14.05
2018-11-03T13:50:54.412Z,14.16
2018-11-03T13:53:26.932Z,14.10
2018-11-03T13:56:04.273Z,14.03
2018-11-03T13:58:36.830Z,14.05
2018-11-03T14:01:12.398Z,13.94
2018-11-03T14:03:45.243Z,13.85
2018-11-03T14:06:20.964Z,13.91
2018-11-03T14:08:54.481Z,13.90
2018-11-03T14:11:26.863Z,13.87
2018-11-03T14:13:59.275Z,13.73
2018-11-03T14:16:33.255Z,13.70
2018-11-03T14:19:05.691Z,13.60
2018-11-03T14:21:38.166Z,13.61
2018-11-03T14:24:10.639Z,13.67
2018-11-03T14:29:21.792Z,13.55
2018-11-03T14:31:54.304Z,13.62
2018-11-03T14:34:27.033Z,13.66
2018-11-03T14:36:59.387Z,13.70
2018-11-03T14:39:31.741Z,13.49
2018-11-03T14:42:04.201Z,13.50
2018-11-03T14:44:36.665Z,13.45
2018-11-03T14:47:09.971Z,13.61
2018-11-03T14:49:42.342Z,13.47
2018-11-03T14:52:14.829Z,13.36
2018-11-03T14:54:49.747Z,13.20
2018-11-03T14:57:22.277Z,13.32
2018-11-03T14:59:54.795Z,13.35
2018-11-03T15:02:27.399Z,13.31
2018-11-03T15:04:59.809Z,13.24
2018-11-03T15:07:32.181Z,13.16
2018-11-03T15:10:05.649Z,13.17
2018-11-03T15:12:38.064Z,13.00
2018-11-03T15:15:12.226Z,13.19
2018-11-03T15:17:45.170Z,13.00
2018-11-03T15:20:17.559Z,12.95
2018-11-03T15:22:49.996Z,12.95
2018-11-03T15:25:22.497Z,12.84
2018-11-03T15:27:54.943Z,12.86
2018-11-03T15:30:27.510Z,12.88
2018-11-03T15:33:00.009Z,12.89
2018-11-03T15:35:32.528Z,12.88
2018-11-03T15:38:06.123Z,12.81
2018-11-03T15:40:38.585Z,12.83
2018-11-03T15:43:12.456Z,12.81
2018-11-03T15:45:45.050Z,12.75
2018-11-03T15:48:17.584Z,12.81
2018-11-03T15:50:50.539Z,12.77
2018-11-03T15:53:23.549Z,12.67
2018-11-03T15:55:56.165Z,12.78
2018-11-03T15:58:28.646Z,12.73
2018-11-03T16:01:01.143Z,12.69
2018-11-03T16:03:33.789Z,12.68
2018-11-03T16:06:06.180Z,12.61
2018-11-03T16:08:40.506Z,12.56
2018-11-03T16:11:13.428Z,12.47
2018-11-03T16:13:50.192Z,12.56
2018-11-03T16:16:23.253Z,12.55
2018-11-03T16:18:55.774Z,12.48
2018-11-03T16:21:28.481Z,12.49
2018-11-03T16:24:08.306Z,12.52
2018-11-03T16:26:43.842Z,12.48
2018-11-03T16:29:16.234Z,12.68
2018-11-03T16:31:48.615Z,12.48
2018-11-03T16:34:21.008Z,12.48
2018-11-03T16:37:00.248Z,12.55
2018-11-03T16:39:35.468Z,12.43
2018-11-03T16:42:07.856Z,12.41
2018-11-03T16:44:40.280Z,12.42
2018-11-03T16:47:13.025Z,12.39
2018-11-03T16:49:45.391Z,12.38
2018-11-03T16:52:17.956Z,12.44
2018-11-03T16:54:50.252Z,12.47
2018-11-03T16:57:22.669Z,12.44
2018-11-03T16:59:54.980Z,12.44
2018-11-03T17:02:27.693Z,12.39
2018-11-03T17:05:00.102Z,12.35
2018-11-03T17:07:32.481Z,12.42
2018-11-03T17:10:07.304Z,12.39
2018-11-03T17:12:41.119Z,12.37
2018-11-03T17:15:13.514Z,12.32
2018-11-03T17:17:46.043Z,12.33
2018-11-03T17:20:18.624Z,12.44
2018-11-03T17:22:51.105Z,12.38
2018-11-03T17:25:23.597Z,12.42
2018-11-03T17:27:56.047Z,12.37
2018-11-03T17:30:28.394Z,12.36
2018-11-03T17:33:01.056Z,12.33
2018-11-03T17:35:33.509Z,12.31
2018-11-03T17:38:05.896Z,12.33
2018-11-03T17:40:38.261Z,12.29
2018-11-03T17:43:10.859Z,12.32
2018-11-03T17:45:43.166Z,12.32
2018-11-03T17:48:15.553Z,12.29
2018-11-03T17:50:48.091Z,12.25
2018-11-03T17:56:00.387Z,12.36
2018-11-03T17:58:32.952Z,12.39
2018-11-03T18:01:05.429Z,12.37
2018-11-03T18:03:38.140Z,12.31
2018-11-03T18:06:10.519Z,12.35
2018-11-03T18:08:42.975Z,12.36
2018-11-03T18:11:16.075Z,12.35
2018-11-03T18:13:48.533Z,12.31
2018-11-03T18:16:21.059Z,12.30
2018-11-03T18:18:53.622Z,12.33
2018-11-03T18:21:25.946Z,12.29
2018-11-03T18:23:58.335Z,12.22
2018-11-03T18:26:30.743Z,12.30
2018-11-03T18:29:03.137Z,12.23
2018-11-03T18:31:35.505Z,12.20
2018-11-03T18:34:07.898Z,12.32
2018-11-03T18:36:40.313Z,12.28
2018-11-03T18:39:12.681Z,12.26
2018-11-03T18:41:45.271Z,12.23
2018-11-03T18:44:17.643Z,12.25
2018-11-03T18:46:50.167Z,12.18
2018-11-03T18:49:22.491Z,12.24
2018-11-03T18:51:55.228Z,12.10
2018-11-03T18:54:27.732Z,12.09
2018-11-03T18:57:00.322Z,12.13
2018-11-03T18:59:32.770Z,12.00
2018-11-03T19:02:05.778Z,11.97
2018-11-03T19:04:38.350Z,11.92
2018-11-03T19:07:11.039Z,11.99
2018-11-03T19:09:43.489Z,12.02
2018-11-03T19:12:15.896Z,12.05
2018-11-03T19:14:48.267Z,12.07
2018-11-03T19:17:20.796Z,12.04
2018-11-03T19:19:53.342Z,12.12
2018-11-03T19:22:26.007Z,12.21
2018-11-03T19:24:58.442Z,12.20
2018-11-03T19:27:31.050Z,12.10
2018-11-03T19:30:04.421Z,12.13
2018-11-03T19:32:36.823Z,12.12
2018-11-03T19:35:09.439Z,12.20
2018-11-03T19:37:42.271Z,12.32
2018-11-03T19:40:14.812Z,12.36
2018-11-03T19:42:47.343Z,12.24
2018-11-03T19:45:20.046Z,12.18
2018-11-03T19:47:52.414Z,12.13
2018-11-03T19:50:24.929Z,12.11
2018-11-03T19:52:57.380Z,12.11
2018-11-03T19:55:29.749Z,12.09
2018-11-03T19:58:02.292Z,12.10
2018-11-03T20:00:34.844Z,12.11
2018-11-03T20:03:07.469Z,12.07
2018-11-03T20:05:39.811Z,12.26
2018-11-03T20:08:12.329Z,12.32
2018-11-03T20:10:44.754Z,12.16
2018-11-03T20:13:17.310Z,12.13
2018-11-03T20:15:49.863Z,12.11
2018-11-03T20:18:22.455Z,12.06
2018-11-03T20:20:54.820Z,12.04
2018-11-03T20:23:27.477Z,12.05
2018-11-03T20:25:59.976Z,12.03
2018-11-03T20:28:32.317Z,12.03
2018-11-03T20:31:04.933Z,12.00
2018-11-03T20:33:37.303Z,11.98
2018-11-03T20:36:09.810Z,12.03
2018-11-03T20:38:42.159Z,12.01
2018-11-03T20:41:14.673Z,12.03
2018-11-03T20:43:47.092Z,11.98
2018-11-03T20:46:19.659Z,12.00
2018-11-03T20:48:51.982Z,12.00
2018-11-03T20:51:24.453Z,12.03
2018-11-03T20:53:57.290Z,12.09
2018-11-03T20:56:29.855Z,12.05
2018-11-03T20:59:02.418Z,11.98
2018-11-03T21:01:34.860Z,11.95
2018-11-03T21:04:07.336Z,11.99
2018-11-03T21:06:39.930Z,12.01
2018-11-03T21:09:12.299Z,11.99
2018-11-03T21:11:45.098Z,12.02
2018-11-03T21:14:17.452Z,12.00
2018-11-03T21:16:49.929Z,11.99
2018-11-03T21:19:22.382Z,11.92
2018-11-03T21:21:54.821Z,11.95
2018-11-03T21:24:28.648Z,11.94
2018-11-03T21:27:01.180Z,11.90
2018-11-03T21:29:33.739Z,11.90
2018-11-03T21:32:06.939Z,11.95
2018-11-03T21:34:39.247Z,11.98
2018-11-03T21:37:11.861Z,11.98
2018-11-03T21:39:45.587Z,12.00
2018-11-03T21:42:20.037Z,11.99
2018-11-03T21:44:54.194Z,11.98
2018-11-03T21:47:27.002Z,12.07
2018-11-03T21:49:59.865Z,12.02
2018-11-03T21:52:32.612Z,12.01
2018-11-03T21:55:05.897Z,11.95
2018-11-03T21:57:38.306Z,11.99
2018-11-03T22:00:11.580Z,11.99
2018-11-03T22:02:45.299Z,11.98
2018-11-03T22:05:18.577Z,11.98
2018-11-03T22:07:52.271Z,11.96
2018-11-03T22:10:26.042Z,11.97
2018-11-03T22:12:58.551Z,11.97
2018-11-03T22:15:30.912Z,11.95
2018-11-03T22:18:03.302Z,11.94
2018-11-03T22:20:35.719Z,11.95
2018-11-03T22:23:08.031Z,11.95
2018-11-03T22:25:40.534Z,11.95
2018-11-03T22:28:13.026Z,11.95
2018-11-03T22:30:46.971Z,11.95
2018-11-03T22:33:20.483Z,11.96
2018-11-03T22:35:53.217Z,11.94
2018-11-03T22:38:26.077Z,11.94
2018-11-03T22:40:58.533Z,11.92
2018-11-03T22:43:30.954Z,11.96
2018-11-03T22:46:03.396Z,12.02
2018-11-03T22:48:35.817Z,12.01
2018-11-03T22:51:14.108Z,12.06
2018-11-03T22:53:49.078Z,12.02
2018-11-03T22:56:22.296Z,11.92
2018-11-03T22:58:54.821Z,11.95
2018-11-03T23:01:28.008Z,11.91
2018-11-03T23:04:00.571Z,11.88
2018-11-03T23:06:32.972Z,11.89
2018-11-03T23:09:06.166Z,11.85
2018-11-03T23:11:38.525Z,11.87
2018-11-03T23:14:11.013Z,11.89
2018-11-03T23:16:43.466Z,11.86
2018-11-03T23:19:16.493Z,11.86
2018-11-03T23:21:50.060Z,11.85
2018-11-03T23:24:23.470Z,12.00
2018-11-03T23:26:56.333Z,11.92
2018-11-03T23:29:28.977Z,11.89
2018-11-03T23:32:01.349Z,11.86
2018-11-03T23:34:33.991Z,11.87
2018-11-03T23:37:06.969Z,11.85
2018-11-03T23:39:39.390Z,11.88
2018-11-03T23:42:11.837Z,11.75
2018-11-03T23:44:45.118Z,11.79
2018-11-03T23:47:19.131Z,11.86
2018-11-03T23:49:52.807Z,11.94
2018-11-03T23:52:31.071Z,12.06
2018-11-03T23:55:05.082Z,11.99
2018-11-03T23:57:37.780Z,12.31
